createdAt,value
2023-01-23T16:12:01.249Z,3.70
2023-01-23T16:14:32.055Z,3.80
2023-01-23T16:17:15.327Z,3.80
2023-01-23T16:19:46.871Z,3.80
2023-01-23T16:22:26.277Z,3.60
2023-01-23T16:24:58.388Z,3.60
2023-01-23T16:27:30.401Z,3.60
2023-01-23T16:30:04.394Z,3.60
2023-01-23T16:32:36.106Z,3.60
2023-01-23T16:35:08.125Z,3.60
2023-01-23T16:37:44.320Z,3.50
2023-01-23T16:40:18.707Z,3.60
2023-01-23T16:42:54.420Z,3.60
2023-01-23T16:45:28.918Z,3.50
2023-01-23T16:48:00.918Z,3.40
2023-01-23T16:50:34.429Z,3.40
2023-01-23T16:53:09.904Z,3.40
2023-01-23T16:55:42.610Z,3.30
2023-01-23T16:58:21.231Z,3.50
2023-01-23T17:00:51.059Z,3.60
2023-01-23T17:03:26.975Z,3.50
2023-01-23T17:06:07.673Z,3.50
2023-01-23T17:08:36.744Z,3.50
2023-01-23T17:11:09.644Z,3.40
2023-01-23T17:13:44.329Z,3.50
2023-01-23T17:16:26.477Z,3.50
2023-01-23T17:18:58.304Z,3.50
2023-01-23T17:21:30.812Z,3.50
2023-01-23T17:23:59.176Z,3.60
2023-01-23T17:26:31.154Z,3.60
2023-01-23T17:29:02.325Z,3.50
2023-01-23T17:31:32.730Z,3.50
2023-01-23T17:34:03.329Z,3.60
2023-01-23T17:36:31.917Z,3.50
2023-01-23T17:39:01.159Z,3.60
2023-01-23T17:41:32.189Z,3.60
2023-01-23T17:44:06.478Z,3.40
2023-01-23T17:46:37.822Z,3.30
2023-01-23T17:49:28.909Z,3.40
2023-01-23T17:51:59.422Z,3.50
2023-01-23T17:54:33.256Z,3.60
2023-01-23T17:57:02.259Z,3.40
2023-01-23T17:59:32.053Z,3.50
2023-01-23T18:02:00.438Z,3.50
2023-01-23T18:04:28.881Z,3.50
2023-01-23T18:07:00.751Z,3.50
2023-01-23T18:09:30.626Z,3.50
2023-01-23T18:12:05.590Z,3.50
2023-01-23T18:14:46.880Z,3.50
2023-01-23T18:17:23.875Z,3.50
2023-01-23T18:19:55.072Z,3.50
2023-01-23T18:22:28.803Z,3.40
2023-01-23T18:24:58.985Z,3.40
2023-01-23T18:27:28.767Z,3.30
2023-01-23T18:30:16.363Z,3.30
2023-01-23T18:33:06.044Z,3.30
2023-01-23T18:35:59.384Z,3.30
2023-01-23T18:38:40.495Z,3.30
2023-01-23T18:41:18.545Z,3.30
2023-01-23T18:43:51.740Z,3.30
2023-01-23T18:46:23.997Z,3.40
2023-01-23T18:48:53.247Z,3.30
2023-01-23T18:51:32.868Z,3.30
2023-01-23T18:54:21.935Z,3.20
2023-01-23T18:57:03.144Z,3.10
2023-01-23T18:59:42.579Z,3.00
2023-01-23T19:02:23.329Z,3.00
